»·PEaware :: N228Q KLVM-KLWT

N228Q :: KLVM-KLWT

FLIGHT INFORMATION

Flight Status: Arrived
Operator: Privately registered:
United States
More flights under this callsign
Pilot: Chuck O. (4337)
Aircraft: BEECH AIRCRAFT BONANZA
(BE35)
More flights by this aircraft type
Origin: KLVM Mission
United States
Destination: KLWT Lewistown Mun
United States
More flights between these airports :: More routes between these airports
Route: ASHUW JUGAP EVBUJ
File this flight plan on PilotEdge
Remarks:
Altitude:
(Current/Filed)
7,500ft
Speed:
(Current/Filed)
160kts
Departed: 23-Oct-20 10:34 AM
Arrived: 23-Oct-20 11:16 AM
Distance/Time
Traveled:
91nm/0:42
Distance/Time
To Go:
Arrived

Flight Plot

Page will automatically refresh every two minutes.

Flight plan parsing failed; only flown route is shown


Map Options




Map Legend


Flown Route
Filed Route
Departure Airport
Arrival Airport
Navaid (VOR, NDB)
Fix

Horizontal Profiles

Position Reports

Time Latitude Longitude Heading Altitude Ground
Speed
23-Oct-20 10:23 45.696967 -110.452526 54 4633ft 0kts
23-Oct-20 10:24 45.696970 -110.452520 54 4633ft 0kts
23-Oct-20 10:25 45.696973 -110.452513 54 4633ft 0kts
23-Oct-20 10:26 45.696976 -110.452507 54 4633ft 0kts
23-Oct-20 10:27 45.696894 -110.452817 182 4633ft 0kts
23-Oct-20 10:28 45.696889 -110.452817 182 4633ft 0kts
23-Oct-20 10:29 45.696869 -110.452818 178 4633ft 2kts
23-Oct-20 10:30 45.696152 -110.449378 52 4633ft 27kts
23-Oct-20 10:31 45.700949 -110.439722 54 4633ft 26kts
23-Oct-20 10:31 45.702484 -110.437272 152 4633ft 0kts
23-Oct-20 10:33 45.702481 -110.437269 152 4633ft 0kts
23-Oct-20 10:33 45.699497 -110.442620 233 4633ft 76kts
23-Oct-20 10:35 45.676916 -110.472401 160 5668ft 97kts
23-Oct-20 10:35 45.678680 -110.441757 64 6427ft 107kts
23-Oct-20 10:36 45.692500 -110.404964 59 7383ft 108kts
23-Oct-20 10:37 45.711934 -110.358255 61 7503ft 158kts
23-Oct-20 10:38 45.735166 -110.301204 61 7506ft 170kts
23-Oct-20 10:39 45.759062 -110.242349 61 7509ft 171kts
23-Oct-20 10:40 45.783039 -110.183168 61 7529ft 171kts
23-Oct-20 10:41 45.806925 -110.124090 61 7538ft 171kts
23-Oct-20 10:42 45.830792 -110.064930 61 7538ft 171kts
23-Oct-20 10:43 45.854733 -110.005460 61 7522ft 172kts
23-Oct-20 10:44 45.891751 -109.967785 10 7499ft 174kts
23-Oct-20 10:45 45.939435 -109.955282 10 7505ft 173kts
23-Oct-20 10:46 45.987697 -109.942431 10 7508ft 173kts
23-Oct-20 10:47 46.035016 -109.929789 10 7507ft 174kts
23-Oct-20 10:48 46.082963 -109.916946 10 7495ft 174kts
23-Oct-20 10:49 46.130545 -109.904184 10 7497ft 173kts
23-Oct-20 10:50 46.175612 -109.892105 10 7957ft 156kts
23-Oct-20 10:51 46.217967 -109.880742 10 8463ft 154kts
23-Oct-20 10:52 46.260098 -109.869395 9 8947ft 154kts
23-Oct-20 10:53 46.302365 -109.857981 8 9409ft 154kts
23-Oct-20 10:54 46.346471 -109.846047 8 9502ft 168kts
23-Oct-20 10:55 46.392796 -109.833463 8 9503ft 170kts
23-Oct-20 10:56 46.439503 -109.820782 8 9499ft 170kts
23-Oct-20 10:57 46.486110 -109.808115 8 9502ft 170kts
23-Oct-20 10:58 46.532662 -109.795442 8 9513ft 170kts
23-Oct-20 10:59 46.579313 -109.782723 8 9513ft 170kts
23-Oct-20 11:00 46.626083 -109.769959 8 9522ft 171kts
23-Oct-20 11:01 46.673247 -109.762993 0 9511ft 171kts
23-Oct-20 11:02 46.720788 -109.759948 0 9502ft 171kts
23-Oct-20 11:03 46.768325 -109.756909 0 9510ft 171kts
23-Oct-20 11:04 46.815953 -109.753859 0 9506ft 170kts
23-Oct-20 11:05 46.863517 -109.750807 0 9500ft 170kts
23-Oct-20 11:06 46.910887 -109.747767 0 9501ft 170kts
23-Oct-20 11:07 46.960443 -109.743828 4 8503ft 190kts
23-Oct-20 11:08 47.010907 -109.736076 352 7285ft 182kts
23-Oct-20 11:09 47.050698 -109.712830 73 6740ft 160kts
23-Oct-20 11:10 47.051833 -109.656918 94 6245ft 115kts
23-Oct-20 11:11 47.051259 -109.611482 94 5774ft 107kts
23-Oct-20 11:12 47.050707 -109.569287 94 5765ft 101kts
23-Oct-20 11:13 47.050288 -109.525805 84 5396ft 112kts
23-Oct-20 11:14 47.053074 -109.482922 91 4378ft 96kts
23-Oct-20 11:15 47.052776 -109.460231 145 4173ft 13kts
23-Oct-20 11:16 47.052470 -109.460146 181 4173ft 0kts
23-Oct-20 11:17 47.048638 -109.460025 157 4173ft 7kts
23-Oct-20 11:18 47.048233 -109.459481 152 4173ft 0kts
23-Oct-20 11:19 47.048231 -109.459480 152 4173ft 0kts
23-Oct-20 11:20 47.048228 -109.459478 152 4173ft 0kts
23-Oct-20 11:21 47.048226 -109.459476 152 4173ft 0kts
23-Oct-20 11:22 47.048224 -109.459475 152 4173ft 0kts
23-Oct-20 11:23 47.048222 -109.459473 152 4173ft 0kts
23-Oct-20 11:24 47.048219 -109.459471 152 4173ft 0kts

Navigation Log

Ident Type
Flight plan parsing failed, navigation log unavailable